Time;durP1;ratioP1;P1;durP2;ratioP2;P2;SDS_P1;SDS_P2;PMS_P1;PMS_P2;Temp;Humidity;BMP_temperature;BMP_pressure;BME280_temperature;BME280_humidity;BME280_pressure;Samples;Min_cycle;Max_cycle;Signal;HPM_P1;HPM_P2
2022/09/24 00:13:59;;;;;;;3.63;1.77;;;16.50;66.00;;;;;;5135210;27;20107;-66
2022/09/24 00:16:30;;;;;;;8.63;2.13;;;16.50;66.00;;;;;;5116119;27;20104;-69
2022/09/24 00:18:58;;;;;;;4.53;2.10;;;16.60;66.00;;;;;;5118775;27;20069;-66
2022/09/24 00:21:27;;;;;;;9.95;3.35;;;16.60;65.70;;;;;;5123838;27;20116;-67
2022/09/24 00:23:56;;;;;;;7.10;2.17;;;16.60;65.50;;;;;;5130124;27;20016;-67
2022/09/24 00:29:10;;;;;;;6.00;2.28;;;16.70;65.80;;;;;;5122523;27;20080;-66
2022/09/24 00:31:37;;;;;;;8.05;1.92;;;16.70;65.70;;;;;;5124250;27;20019;-67
2022/09/24 00:34:04;;;;;;;7.90;2.33;;;16.70;65.50;;;;;;5119042;27;20016;-67
2022/09/24 00:36:30;;;;;;;13.38;2.25;;;16.70;65.30;;;;;;5127546;27;20378;-67
2022/09/24 00:38:58;;;;;;;5.85;2.67;;;16.70;65.50;;;;;;5124147;27;20047;-68
2022/09/24 00:41:27;;;;;;;11.57;1.98;;;16.70;65.70;;;;;;5121606;27;20043;-67
2022/09/24 00:43:54;;;;;;;10.73;3.28;;;16.70;65.70;;;;;;5127953;27;20028;-67
2022/09/24 00:46:33;;;;;;;7.28;1.80;;;16.70;65.60;;;;;;5126193;27;20023;-68
2022/09/24 00:49:16;;;;;;;4.40;2.10;;;16.70;65.50;;;;;;5125697;27;20050;-67
2022/09/24 00:51:47;;;;;;;7.20;2.38;;;16.70;65.40;;;;;;5125666;27;20019;-68
2022/09/24 00:54:23;;;;;;;8.65;3.72;;;16.70;65.30;;;;;;5123095;27;20450;-68
2022/09/24 00:56:51;;;;;;;10.10;2.95;;;16.70;65.60;;;;;;5123276;27;20019;-68
2022/09/24 00:59:21;;;;;;;7.35;2.58;;;16.70;67.00;;;;;;5123378;27;20026;-67
2022/09/24 01:01:49;;;;;;;11.40;2.40;;;16.70;66.60;;;;;;5121854;27;20088;-68
2022/09/24 01:04:21;;;;;;;8.63;2.05;;;16.70;66.10;;;;;;5126644;27;20042;-68
2022/09/24 01:06:48;;;;;;;8.23;2.17;;;16.70;65.90;;;;;;5126166;27;20031;-67
2022/09/24 01:09:16;;;;;;;6.78;1.98;;;16.70;65.70;;;;;;5120566;27;20115;-67
2022/09/24 01:11:54;;;;;;;9.52;2.00;;;16.60;65.50;;;;;;5120482;27;20015;-67
2022/09/24 01:14:42;;;;;;;5.88;1.92;;;16.60;65.60;;;;;;5108689;27;20031;-68
2022/09/24 01:17:31;;;;;;;9.85;1.92;;;16.60;65.60;;;;;;5109988;28;20031;-67
2022/09/24 01:20:10;;;;;;;14.48;3.95;;;16.60;65.70;;;;;;5116608;27;20012;-67
2022/09/24 01:22:52;;;;;;;7.13;2.00;;;16.50;65.80;;;;;;5108166;27;20032;-67
2022/09/24 01:25:19;;;;;;;7.68;1.70;;;16.50;65.80;;;;;;5105342;27;20016;-68
2022/09/24 01:27:55;;;;;;;10.10;2.67;;;16.50;65.90;;;;;;5118410;27;20502;-67
2022/09/24 01:30:24;;;;;;;10.13;3.00;;;16.50;65.90;;;;;;5113509;27;20035;-67
2022/09/24 01:32:57;;;;;;;5.95;2.50;;;16.50;65.40;;;;;;5112758;27;20024;-67
2022/09/24 01:35:35;;;;;;;13.52;1.92;;;16.40;65.00;;;;;;5113749;27;20444;-67
2022/09/24 01:38:07;;;;;;;18.10;2.75;;;16.40;65.90;;;;;;5116165;27;20031;-68
2022/09/24 01:40:35;;;;;;;12.93;1.67;;;16.40;66.50;;;;;;5109429;27;20023;-67
2022/09/24 01:43:05;;;;;;;9.15;1.90;;;16.40;66.10;;;;;;5109562;27;20546;-67
2022/09/24 01:45:32;;;;;;;4.20;1.40;;;16.40;65.70;;;;;;5112629;27;20044;-67
2022/09/24 01:48:00;;;;;;;8.38;3.55;;;16.40;65.30;;;;;;5120293;27;20027;-67
2022/09/24 01:50:30;;;;;;;8.38;2.95;;;16.30;64.80;;;;;;5107229;27;20615;-67
2022/09/24 01:53:25;;;;;;;11.35;1.88;;;16.30;66.10;;;;;;5105122;28;20085;-67
2022/09/24 01:55:59;;;;;;;5.13;2.10;;;16.30;66.50;;;;;;5109218;27;20099;-68
2022/09/24 01:58:42;;;;;;;10.73;2.67;;;16.30;66.90;;;;;;5112094;27;20415;-67
2022/09/24 02:01:16;;;;;;;9.55;3.03;;;16.30;67.20;;;;;;5102913;28;20042;-67
2022/09/24 02:03:47;;;;;;;14.65;5.90;;;16.30;67.10;;;;;;5106779;28;20056;-67
2022/09/24 02:07:05;;;;;;;9.15;3.22;;;16.30;66.30;;;;;;5113672;27;20031;-68
2022/09/24 02:09:40;;;;;;;6.93;2.75;;;16.30;65.90;;;;;;5103995;28;20082;-67
2022/09/24 02:12:13;;;;;;;8.52;1.75;;;16.20;66.10;;;;;;5105101;28;20056;-67
2022/09/24 02:14:53;;;;;;;4.50;1.73;;;16.20;66.00;;;;;;5108362;28;20061;-68
2022/09/24 02:17:23;;;;;;;6.63;1.90;;;16.20;66.10;;;;;;5111029;27;20148;-67
2022/09/24 02:19:51;;;;;;;4.95;1.80;;;16.20;66.40;;;;;;5109145;27;20019;-67
2022/09/24 02:22:18;;;;;;;12.30;2.95;;;16.20;67.20;;;;;;5110300;27;20031;-67
2022/09/24 02:24:51;;;;;;;3.58;1.00;;;16.10;67.00;;;;;;5115274;27;20105;-68
2022/09/24 02:27:18;;;;;;;9.93;2.80;;;16.10;66.70;;;;;;5104607;27;20510;-67
2022/09/24 02:29:45;;;;;;;3.03;1.00;;;16.10;66.40;;;;;;5112348;27;20016;-67
2022/09/24 02:32:16;;;;;;;11.50;3.70;;;16.10;66.30;;;;;;5113533;27;20027;-68
2022/09/24 02:34:49;;;;;;;13.68;1.63;;;16.10;66.30;;;;;;5109198;27;20028;-67
2022/09/24 02:37:16;;;;;;;8.43;1.35;;;16.10;66.00;;;;;;5105477;27;20027;-68
2022/09/24 02:39:42;;;;;;;7.55;1.70;;;16.10;65.50;;;;;;5111379;27;20099;-68
2022/09/24 02:42:12;;;;;;;5.38;1.48;;;16.00;65.40;;;;;;5106179;27;20147;-68
2022/09/24 02:44:39;;;;;;;6.68;1.38;;;16.00;65.70;;;;;;5112388;27;20050;-67
2022/09/24 02:47:06;;;;;;;3.40;1.40;;;16.00;65.90;;;;;;5099016;28;20024;-67
2022/09/24 02:49:33;;;;;;;4.70;1.23;;;16.00;65.70;;;;;;5116521;27;20501;-67
2022/09/24 02:51:59;;;;;;;1.35;0.80;;;15.90;65.80;;;;;;5108807;28;20069;-68
2022/09/24 02:54:26;;;;;;;5.07;1.70;;;15.90;65.80;;;;;;5114947;27;20046;-68
2022/09/24 02:56:52;;;;;;;5.63;1.10;;;15.90;65.80;;;;;;5102134;28;20023;-68
2022/09/24 02:59:19;;;;;;;4.75;1.35;;;15.90;65.70;;;;;;5107042;27;20019;-67
2022/09/24 03:01:46;;;;;;;4.97;2.28;;;15.90;65.90;;;;;;5112161;27;20390;-69
2022/09/24 03:04:13;;;;;;;2.85;1.35;;;15.80;65.80;;;;;;5104995;27;20127;-68
2022/09/24 03:06:40;;;;;;;3.10;1.05;;;15.80;65.50;;;;;;5107914;27;20037;-68
2022/09/24 03:09:06;;;;;;;4.15;1.42;;;15.80;65.20;;;;;;5113580;27;20371;-67
2022/09/24 03:11:34;;;;;;;3.25;1.10;;;15.80;65.10;;;;;;5111280;27;20047;-68
2022/09/24 03:14:01;;;;;;;5.70;1.92;;;15.80;65.20;;;;;;5109561;27;20074;-68
2022/09/24 03:16:27;;;;;;;10.27;1.33;;;15.70;65.00;;;;;;5105585;27;20024;-66
2022/09/24 03:18:54;;;;;;;3.63;1.10;;;15.70;65.10;;;;;;5114624;27;20036;-68
2022/09/24 03:21:22;;;;;;;5.38;1.38;;;15.70;65.10;;;;;;5110386;27;20167;-67
2022/09/24 03:23:48;;;;;;;2.38;1.00;;;15.70;65.00;;;;;;5108505;27;20034;-68
2022/09/24 03:26:16;;;;;;;8.15;1.35;;;15.70;65.00;;;;;;5106863;27;20027;-67
2022/09/24 03:28:43;;;;;;;4.20;1.85;;;15.70;65.00;;;;;;5112244;27;20036;-67
2022/09/24 03:31:09;;;;;;;4.03;1.35;;;15.60;64.90;;;;;;5109326;27;20580;-67
2022/09/24 03:33:37;;;;;;;5.93;1.13;;;15.60;64.90;;;;;;5107225;27;20022;-69
2022/09/24 03:36:23;;;;;;;4.43;1.25;;;15.60;64.90;;;;;;5116789;27;20793;-67
2022/09/24 03:38:55;;;;;;;7.78;1.38;;;15.50;64.90;;;;;;5106180;27;20448;-68
2022/09/24 03:41:23;;;;;;;5.80;1.73;;;15.50;65.00;;;;;;5106963;28;20067;-67
2022/09/24 03:43:50;;;;;;;4.07;2.10;;;15.50;65.00;;;;;;5108998;28;20024;-67
2022/09/24 03:46:17;;;;;;;6.88;2.08;;;15.50;65.00;;;;;;5113491;27;20027;-68
2022/09/24 03:48:46;;;;;;;7.70;2.50;;;15.50;64.90;;;;;;5110902;27;20024;-69
2022/09/24 03:51:15;;;;;;;6.45;2.55;;;15.50;64.90;;;;;;5110324;28;20051;-68
2022/09/24 03:53:42;;;;;;;5.53;2.28;;;15.40;64.80;;;;;;5110099;27;20015;-67
2022/09/24 03:56:10;;;;;;;4.90;2.15;;;15.40;64.80;;;;;;5113972;27;20060;-68
2022/09/24 03:58:37;;;;;;;3.83;1.80;;;15.40;64.80;;;;;;5112204;28;20051;-68
2022/09/24 04:01:10;;;;;;;3.50;1.95;;;15.40;64.80;;;;;;5104402;28;20019;-68
2022/09/24 04:03:38;;;;;;;3.15;1.13;;;15.40;64.80;;;;;;5107067;28;20099;-68
2022/09/24 04:06:05;;;;;;;4.70;1.30;;;15.40;64.90;;;;;;5105516;28;20032;-68
2022/09/24 04:08:32;;;;;;;3.33;1.35;;;15.30;64.80;;;;;;5100559;28;20020;-67
2022/09/24 04:10:59;;;;;;;2.95;1.30;;;15.30;64.80;;;;;;5111410;28;20016;-68
2022/09/24 04:13:25;;;;;;;5.72;1.40;;;15.30;64.70;;;;;;5107593;28;20043;-68
2022/09/24 04:15:53;;;;;;;6.18;1.40;;;15.30;64.70;;;;;;5107220;28;20598;-68
2022/09/24 04:18:19;;;;;;;3.78;1.55;;;15.30;64.70;;;;;;5105420;28;20036;-68
2022/09/24 04:20:46;;;;;;;19.35;2.83;;;15.30;64.80;;;;;;5108887;28;20039;-67
2022/09/24 04:23:14;;;;;;;10.18;2.00;;;15.20;65.50;;;;;;5107068;28;20393;-67
2022/09/24 04:25:40;;;;;;;11.60;2.13;;;15.20;66.10;;;;;;5108285;28;20039;-68
2022/09/24 04:28:08;;;;;;;19.23;2.00;;;15.20;65.90;;;;;;5105591;28;20023;-67
2022/09/24 04:30:36;;;;;;;3.60;1.88;;;15.20;65.70;;;;;;5107489;28;20478;-67
2022/09/24 04:33:04;;;;;;;5.82;1.30;;;15.20;65.50;;;;;;5110084;28;20039;-68
2022/09/24 04:35:34;;;;;;;4.40;1.17;;;15.20;65.40;;;;;;5112723;28;20417;-67
2022/09/24 04:38:02;;;;;;;6.60;1.73;;;15.20;65.30;;;;;;5110734;28;20114;-68
2022/09/24 04:40:29;;;;;;;10.70;1.75;;;15.10;65.20;;;;;;5105160;28;20022;-67
2022/09/24 04:42:56;;;;;;;6.13;1.77;;;15.10;65.30;;;;;;5102002;28;20036;-68
2022/09/24 04:45:23;;;;;;;4.63;1.25;;;15.10;65.40;;;;;;5120864;27;20415;-68
2022/09/24 04:48:00;;;;;;;1.73;1.33;;;15.10;65.50;;;;;;5107097;27;20027;-68
2022/09/24 04:50:28;;;;;;;4.65;1.45;;;15.10;65.70;;;;;;5107005;27;20486;-68
2022/09/24 04:52:55;;;;;;;4.45;1.20;;;15.10;65.80;;;;;;5108877;28;20019;-67
2022/09/24 04:55:22;;;;;;;4.60;1.65;;;15.10;66.10;;;;;;5108720;28;20485;-68
2022/09/24 04:57:49;;;;;;;6.97;3.53;;;15.10;66.30;;;;;;5108630;28;20028;-70
2022/09/24 05:00:18;;;;;;;16.30;8.13;;;15.00;66.40;;;;;;5111989;27;20035;-68
2022/09/24 05:02:45;;;;;;;8.23;3.55;;;15.10;66.90;;;;;;5109090;28;20096;-67
2022/09/24 05:05:12;;;;;;;14.95;2.38;;;15.00;66.80;;;;;;5115546;27;20036;-69
2022/09/24 05:07:40;;;;;;;9.50;2.70;;;14.90;68.20;;;;;;5113812;27;20050;-67
2022/09/24 05:10:07;;;;;;;6.35;2.47;;;14.90;68.10;;;;;;5114332;27;20030;-68
2022/09/24 05:12:35;;;;;;;6.00;1.92;;;14.90;68.00;;;;;;5114976;27;20047;-68
2022/09/24 05:15:03;;;;;;;4.68;1.88;;;14.90;68.40;;;;;;5115216;27;20073;-68
2022/09/24 05:17:34;;;;;;;97.20;12.52;;;15.00;68.80;;;;;;5113444;27;20031;-67
2022/09/24 05:20:01;;;;;;;105.07;19.20;;;14.90;68.60;;;;;;5107328;27;20025;-67
2022/09/24 05:22:28;;;;;;;124.00;19.13;;;14.80;68.90;;;;;;5103414;27;20378;-69
2022/09/24 05:24:55;;;;;;;96.13;11.90;;;14.80;69.00;;;;;;5108682;27;20024;-68
2022/09/24 05:27:36;;;;;;;11.60;3.28;;;14.90;69.30;;;;;;5105303;27;20028;-71
2022/09/24 05:30:05;;;;;;;6.55;2.17;;;14.90;69.40;;;;;;5115276;27;20016;-69
2022/09/24 05:32:32;;;;;;;5.57;2.20;;;14.90;69.50;;;;;;5110324;28;20023;-70
2022/09/24 05:34:59;;;;;;;5.20;1.90;;;14.90;69.70;;;;;;5109478;27;20030;-68
2022/09/24 05:37:25;;;;;;;11.05;2.53;;;14.90;69.90;;;;;;5109670;28;20031;-70
2022/09/24 05:39:53;;;;;;;5.63;2.22;;;14.90;70.00;;;;;;5108428;27;20023;-69
2022/09/24 05:42:21;;;;;;;27.00;8.52;;;15.00;70.00;;;;;;5106539;27;20035;-67
2022/09/24 05:44:48;;;;;;;14.05;8.05;;;15.00;70.00;;;;;;5107817;27;20033;-67
2022/09/24 05:47:16;;;;;;;21.60;6.97;;;15.10;70.20;;;;;;5107711;27;20076;-67
2022/09/24 05:49:46;;;;;;;13.38;4.18;;;15.10;70.20;;;;;;5101247;27;20024;-67
2022/09/24 05:52:14;;;;;;;10.50;5.70;;;15.10;70.30;;;;;;5106048;27;20019;-71
2022/09/24 05:54:40;;;;;;;12.15;6.65;;;15.10;70.30;;;;;;5103943;27;20090;-67
2022/09/24 05:57:09;;;;;;;12.98;7.63;;;15.20;70.20;;;;;;5104595;27;20615;-68
2022/09/24 05:59:36;;;;;;;10.23;6.00;;;15.20;70.10;;;;;;5104122;27;20018;-70
2022/09/24 06:02:02;;;;;;;8.52;5.30;;;15.20;69.90;;;;;;5103293;27;20165;-67
2022/09/24 06:04:29;;;;;;;13.45;6.72;;;15.20;69.90;;;;;;5105203;28;20099;-69
2022/09/24 08:36:39;;;;;;;8.43;2.20;;;16.60;68.60;;;;;;5127565;27;20417;-72
2022/09/24 08:39:07;;;;;;;5.60;3.15;;;17.10;68.50;;;;;;5125076;27;20032;-73
2022/09/24 08:41:52;;;;;;;9.65;2.13;;;17.20;68.00;;;;;;5126497;27;20107;-73
2022/09/24 08:47:53;;;;;;;5.40;2.40;;;17.40;67.40;;;;;;5127945;27;20465;-73
2022/09/24 08:50:35;;;;;;;6.45;2.20;;;17.50;67.00;;;;;;5125963;27;20115;-73
2022/09/24 08:53:12;;;;;;;3.70;2.08;;;17.60;66.20;;;;;;5127747;27;20031;-74
2022/09/24 08:55:46;;;;;;;6.05;2.40;;;17.70;66.00;;;;;;5123217;27;20027;-76
2022/09/24 08:58:39;;;;;;;7.05;2.47;;;17.80;65.30;;;;;;5127390;27;20476;-71
2022/09/24 09:01:16;;;;;;;9.43;2.72;;;17.90;65.10;;;;;;5127957;27;20072;-70
2022/09/24 09:04:22;;;;;;;8.15;1.85;;;18.00;64.90;;;;;;5125512;27;20039;-76
2022/09/24 09:07:13;;;;;;;10.80;2.30;;;18.00;64.10;;;;;;5126328;28;20481;-77
2022/09/24 09:09:53;;;;;;;3.08;1.80;;;18.10;63.90;;;;;;5127162;27;20477;-70
2022/09/24 09:12:43;;;;;;;6.50;2.00;;;18.20;64.50;;;;;;5123377;27;20031;-77
2022/09/24 09:15:18;;;;;;;3.70;1.40;;;18.20;63.90;;;;;;5126805;27;20051;-73
2022/09/24 09:17:58;;;;;;;4.47;1.83;;;18.30;63.80;;;;;;5126952;27;20075;-72
2022/09/24 09:20:34;;;;;;;7.45;2.28;;;18.30;63.80;;;;;;5125527;27;20069;-78
2022/09/24 09:23:11;;;;;;;9.73;1.98;;;18.40;63.80;;;;;;5126179;27;20073;-73
2022/09/24 09:25:44;;;;;;;9.40;2.70;;;18.40;63.60;;;;;;5125901;27;20050;-75
2022/09/24 09:28:13;;;;;;;7.55;2.55;;;18.50;63.70;;;;;;5125442;27;20032;-74
2022/09/24 09:30:52;;;;;;;7.40;2.20;;;18.50;63.60;;;;;;5129693;27;20038;-78
2022/09/24 09:33:46;;;;;;;11.27;4.32;;;18.60;64.30;;;;;;5127487;27;20023;-75
2022/09/24 09:36:25;;;;;;;7.20;2.67;;;18.70;63.60;;;;;;5118480;27;20048;-75
2022/09/24 09:39:20;;;;;;;10.38;2.65;;;18.70;63.50;;;;;;5112114;27;20102;-73
2022/09/24 09:41:50;;;;;;;7.23;2.20;;;18.80;63.10;;;;;;5115420;27;20023;-74
2022/09/24 09:44:25;;;;;;;6.25;1.90;;;18.80;62.60;;;;;;5113871;27;20054;-71
2022/09/24 09:47:23;;;;;;;6.32;2.22;;;18.80;62.40;;;;;;5113426;27;20107;-71
2022/09/24 09:49:53;;;;;;;6.45;2.60;;;18.80;62.40;;;;;;5116046;27;20030;-76
2022/09/24 09:52:23;;;;;;;5.88;1.90;;;18.90;62.60;;;;;;5111963;27;20020;-76
2022/09/24 09:54:50;;;;;;;5.47;2.13;;;18.90;62.70;;;;;;5112769;27;20077;-73
2022/09/24 09:57:23;;;;;;;8.50;2.00;;;18.90;63.40;;;;;;5109480;28;20043;-76
2022/09/24 09:59:54;;;;;;;8.70;2.10;;;19.00;62.90;;;;;;5114925;27;20389;-71
2022/09/24 10:02:26;;;;;;;8.15;2.10;;;19.00;62.60;;;;;;5113144;27;20026;-73
2022/09/24 10:04:56;;;;;;;6.97;1.92;;;19.10;62.00;;;;;;5112001;27;20430;-71
2022/09/24 10:07:23;;;;;;;7.22;2.50;;;19.10;61.80;;;;;;5115154;27;20036;-76
2022/09/24 10:10:17;;;;;;;7.30;2.00;;;19.10;61.50;;;;;;5111378;27;20051;-74
2022/09/24 10:12:44;;;;;;;10.65;2.42;;;19.20;61.20;;;;;;5112963;27;20039;-73
2022/09/24 10:15:23;;;;;;;9.30;2.97;;;19.20;61.00;;;;;;5113309;27;20020;-71
2022/09/24 10:17:53;;;;;;;10.63;2.08;;;19.20;60.90;;;;;;5114532;27;20032;-76
2022/09/24 10:20:28;;;;;;;10.55;2.67;;;19.30;60.40;;;;;;5107230;28;20063;-77
2022/09/24 10:22:56;;;;;;;;;;;19.30;60.60;;;;;;5112259;27;20386;-73
2022/09/24 10:25:27;;;;;;;3.63;2.08;;;19.40;60.50;;;;;;5111678;27;20964;-75
2022/09/24 10:30:58;;;;;;;4.63;1.77;;;19.60;60.40;;;;;;5078690;28;20047;-72
2022/09/24 10:33:25;;;;;;;8.30;2.15;;;19.70;60.00;;;;;;5113147;27;20054;-70
2022/09/24 10:36:04;;;;;;;7.63;3.10;;;19.70;60.10;;;;;;5110458;28;20432;-71
2022/09/24 10:38:30;;;;;;;7.80;2.88;;;19.80;59.80;;;;;;5114426;27;20448;-71
2022/09/24 10:40:58;;;;;;;9.93;2.65;;;19.80;59.50;;;;;;5112355;27;20422;-71
2022/09/24 10:43:24;;;;;;;6.97;2.70;;;19.90;59.30;;;;;;5108701;27;20024;-73
2022/09/24 10:46:06;;;;;;;7.15;2.08;;;19.90;58.80;;;;;;5111947;27;20027;-77
2022/09/24 10:48:39;;;;;;;5.10;2.03;;;20.00;58.60;;;;;;5109752;27;20080;-71
2022/09/24 10:51:27;;;;;;;7.65;3.05;;;20.00;58.50;;;;;;5113756;27;20045;-70
2022/09/24 10:54:32;;;;;;;5.85;2.25;;;20.10;58.40;;;;;;5113580;27;20019;-71
2022/09/24 10:57:02;;;;;;;7.10;2.17;;;20.10;58.00;;;;;;5110675;27;20104;-70
2022/09/24 10:59:38;;;;;;;4.90;2.15;;;20.20;57.50;;;;;;5114202;27;20030;-75
2022/09/24 11:02:44;;;;;;;6.30;1.77;;;20.20;57.10;;;;;;5111395;27;20054;-71
2022/09/24 11:05:12;;;;;;;8.45;3.15;;;20.30;57.20;;;;;;5112155;27;20039;-71
2022/09/24 11:07:51;;;;;;;10.25;2.05;;;20.30;57.10;;;;;;5111648;27;20050;-72
2022/09/24 11:11:01;;;;;;;9.77;2.25;;;20.30;56.70;;;;;;5112195;27;20061;-72
2022/09/24 11:13:44;;;;;;;4.90;2.13;;;20.40;56.60;;;;;;5113114;27;20391;-71
2022/09/24 11:16:16;;;;;;;5.93;2.42;;;20.40;56.00;;;;;;5111167;27;20466;-72
2022/09/24 11:19:19;;;;;;;5.45;1.90;;;20.30;55.90;;;;;;5109864;27;20020;-74
2022/09/24 11:21:56;;;;;;;7.75;1.65;;;20.30;56.00;;;;;;5112705;27;20020;-72
2022/09/24 11:24:53;;;;;;;4.78;1.85;;;20.30;55.70;;;;;;5107495;27;20430;-72
2022/09/24 11:27:32;;;;;;;3.92;1.40;;;20.30;55.80;;;;;;5110482;27;20072;-72
2022/09/24 11:30:15;;;;;;;6.78;1.58;;;20.30;55.60;;;;;;5111157;27;20028;-74
2022/09/24 11:32:49;;;;;;;6.97;2.20;;;20.30;55.30;;;;;;5112596;27;20111;-72
2022/09/24 11:35:44;;;;;;;7.03;2.00;;;20.30;54.90;;;;;;5109344;27;20039;-74
2022/09/24 11:38:33;;;;;;;5.75;1.98;;;20.30;54.30;;;;;;5109436;28;20016;-72
2022/09/24 11:41:15;;;;;;;4.35;1.95;;;20.30;54.60;;;;;;5113114;27;20098;-74
2022/09/24 11:44:17;;;;;;;5.50;1.38;;;20.30;54.20;;;;;;5110215;27;20032;-71
2022/09/24 11:47:05;;;;;;;7.22;1.88;;;20.30;53.30;;;;;;5111443;27;20410;-76
2022/09/24 11:50:14;;;;;;;2.47;1.40;;;20.30;54.10;;;;;;5112947;27;20031;-77
2022/09/24 11:53:02;;;;;;;9.93;2.00;;;20.40;54.20;;;;;;4991209;28;20047;-74
2022/09/24 11:56:01;;;;;;;6.30;2.72;;;20.50;53.90;;;;;;5110969;27;20088;-73
2022/09/24 11:58:42;;;;;;;4.43;1.65;;;20.50;53.20;;;;;;5108627;27;20027;-73
2022/09/24 12:01:12;;;;;;;4.35;1.25;;;20.60;52.90;;;;;;5108471;28;20031;-72
2022/09/24 12:04:05;;;;;;;1.35;1.02;;;20.60;53.10;;;;;;5110639;28;20046;-70
2022/09/24 12:06:41;;;;;;;3.60;1.17;;;20.70;52.00;;;;;;5107809;27;20038;-79
2022/09/24 12:09:32;;;;;;;4.22;1.17;;;20.70;51.20;;;;;;5112562;27;20023;-73
2022/09/24 12:12:15;;;;;;;6.03;1.67;;;20.80;51.30;;;;;;5111477;27;20135;-74
2022/09/24 12:15:29;;;;;;;6.55;1.75;;;20.80;51.00;;;;;;5108688;28;20170;-72
2022/09/24 12:18:15;;;;;;;7.18;1.98;;;20.70;50.90;;;;;;5025039;28;20116;-72
2022/09/24 12:21:00;;;;;;;6.07;1.40;;;20.70;50.90;;;;;;5026763;28;20033;-72
2022/09/24 12:23:31;;;;;;;5.13;1.40;;;20.70;51.40;;;;;;5090647;28;20084;-74
2022/09/24 12:26:01;;;;;;;4.78;1.60;;;20.60;50.50;;;;;;5109829;28;20386;-73
2022/09/24 12:34:36;;;;;;;6.68;2.17;;;20.40;51.50;;;;;;5111468;28;20063;-74
2022/09/24 12:37:07;;;;;;;5.68;2.47;;;20.40;51.90;;;;;;5112456;28;20020;-74
2022/09/24 12:40:08;;;;;;;4.65;1.65;;;20.30;51.60;;;;;;5112273;28;20482;-75
2022/09/24 12:42:47;;;;;;;9.15;2.20;;;20.30;51.70;;;;;;5105197;28;20039;-75
2022/09/24 12:45:21;;;;;;;5.85;1.90;;;20.30;52.00;;;;;;5108297;28;20036;-73
2022/09/24 12:48:01;;;;;;;6.60;2.05;;;20.30;52.20;;;;;;5114715;28;20031;-73
2022/09/24 12:50:37;;;;;;;5.22;2.40;;;20.30;52.40;;;;;;5115416;27;20070;-74
2022/09/24 12:53:23;;;;;;;7.28;2.45;;;20.20;52.60;;;;;;5110100;28;20027;-72
2022/09/24 12:55:51;;;;;;;4.97;1.83;;;20.20;52.60;;;;;;5111293;28;20024;-77
2022/09/24 12:58:35;;;;;;;11.20;2.13;;;20.10;53.00;;;;;;5112615;28;20019;-74
2022/09/24 13:01:27;;;;;;;7.53;1.73;;;20.10;52.70;;;;;;5110308;28;20050;-72
2022/09/24 13:04:15;;;;;;;6.65;3.15;;;20.10;52.90;;;;;;5111523;28;20038;-79
2022/09/24 13:06:46;;;;;;;11.80;1.98;;;20.00;52.90;;;;;;5109671;28;20027;-73
2022/09/24 13:09:32;;;;;;;6.07;2.67;;;20.00;53.00;;;;;;5108744;28;20367;-73
2022/09/24 13:12:03;;;;;;;8.30;3.15;;;19.90;53.20;;;;;;5112117;27;20023;-73
2022/09/24 13:14:33;;;;;;;9.50;5.03;;;19.90;53.40;;;;;;5112214;27;20016;-76
2022/09/24 13:17:06;;;;;;;10.57;5.03;;;19.90;54.20;;;;;;5113184;27;20103;-74
2022/09/24 13:19:39;;;;;;;9.60;4.22;;;19.80;53.50;;;;;;5111036;27;20020;-72
2022/09/24 13:22:22;;;;;;;5.88;2.92;;;19.80;53.60;;;;;;5112241;27;20482;-73
2022/09/24 13:24:51;;;;;;;7.72;3.85;;;19.80;53.80;;;;;;5112499;27;20123;-73
2022/09/24 13:27:29;;;;;;;12.13;5.93;;;19.70;54.00;;;;;;5114109;27;20098;-73
2022/09/24 13:30:14;;;;;;;14.45;9.00;;;19.70;54.10;;;;;;5113320;27;20028;-74
2022/09/24 13:33:08;;;;;;;14.82;9.05;;;19.80;54.10;;;;;;5112424;27;20062;-72
2022/09/24 13:35:47;;;;;;;9.05;6.25;;;19.70;53.80;;;;;;5112704;27;20046;-73
2022/09/24 13:38:19;;;;;;;11.45;3.42;;;19.60;53.70;;;;;;5112289;27;20026;-73
2022/09/24 13:40:55;;;;;;;7.63;3.67;;;19.60;53.80;;;;;;5111469;27;20031;-73
2022/09/24 13:43:44;;;;;;;7.78;2.67;;;19.60;53.50;;;;;;5110458;28;20019;-72
2022/09/24 13:46:15;;;;;;;6.55;2.55;;;19.60;54.00;;;;;;5113475;27;20052;-80
2022/09/24 13:48:48;;;;;;;8.63;3.85;;;19.60;54.50;;;;;;5113544;27;20032;-76
2022/09/24 13:51:17;;;;;;;3.75;3.17;;;19.60;54.60;;;;;;5114391;27;20027;-73
2022/09/24 13:54:09;;;;;;;8.95;3.15;;;19.60;54.50;;;;;;5111314;28;20087;-72
2022/09/24 13:56:36;;;;;;;6.75;3.33;;;19.60;54.20;;;;;;5110722;27;20110;-72
2022/09/24 13:59:12;;;;;;;7.85;3.30;;;19.60;53.90;;;;;;5112636;27;20012;-77
2022/09/24 14:01:45;;;;;;;7.15;3.17;;;19.60;53.70;;;;;;5113345;27;20500;-73
2022/09/24 14:04:20;;;;;;;9.32;3.70;;;19.60;53.80;;;;;;5112644;27;20470;-76
2022/09/24 16:56:22;;;;;;;18.60;9.10;;;18.70;67.90;;;;;;6091834;23;3212841;-73
2022/09/24 16:58:49;;;;;;;18.50;10.57;;;18.70;67.70;;;;;;6158007;23;20021;-74
2022/09/24 17:01:18;;;;;;;27.20;11.93;;;18.70;67.70;;;;;;6157704;23;20520;-65
2022/09/24 17:03:54;;;;;;;20.02;10.63;;;18.70;71.20;;;;;;6158992;23;20002;-71
2022/09/24 17:06:24;;;;;;;19.23;10.30;;;18.70;72.20;;;;;;6158288;23;20006;-69
2022/09/24 17:11:38;;;;;;;15.43;9.43;;;18.70;71.50;;;;;;6158085;23;20056;-72
2022/09/24 17:14:06;;;;;;;13.55;7.70;;;18.70;70.90;;;;;;6158061;23;20001;-69
2022/09/24 17:16:33;;;;;;;15.27;8.05;;;18.70;70.40;;;;;;6158310;23;20329;-70
2022/09/24 17:19:00;;;;;;;12.75;7.30;;;18.70;70.30;;;;;;6157123;23;20032;-66
2022/09/24 17:21:27;;;;;;;16.10;8.43;;;18.70;70.40;;;;;;6158477;23;20001;-67
2022/09/24 17:23:53;;;;;;;23.75;13.65;;;18.70;71.10;;;;;;6157634;23;20016;-66
2022/09/24 17:26:21;;;;;;;22.48;10.98;;;18.70;72.40;;;;;;6158073;23;20009;-69
2022/09/24 17:28:56;;;;;;;18.35;10.25;;;18.70;72.30;;;;;;6154911;23;20064;-67
2022/09/24 17:31:24;;;;;;;;;;;18.60;71.70;;;;;;6151135;23;20339;-70
2022/09/24 17:33:59;;;;;;;17.60;7.10;;;18.60;72.60;;;;;;6151754;23;20326;-74
2022/09/24 17:36:27;;;;;;;14.85;6.72;;;18.60;73.40;;;;;;6150679;23;20010;-79
2022/09/24 17:38:55;;;;;;;17.27;6.93;;;18.60;73.50;;;;;;6151086;23;20013;-83
2022/09/24 17:41:22;;;;;;;13.75;6.78;;;18.60;74.10;;;;;;6151395;23;20049;-84
2022/09/24 17:43:50;;;;;;;9.90;5.35;;;18.60;74.10;;;;;;6152417;23;20376;-84
2022/09/24 17:46:23;;;;;;;10.30;6.78;;;18.60;74.00;;;;;;6151902;23;20002;-82
2022/09/24 17:48:54;;;;;;;14.43;5.65;;;18.60;74.10;;;;;;6153048;23;20090;-79
2022/09/24 17:51:24;;;;;;;8.50;5.20;;;18.60;74.30;;;;;;6154133;23;20361;-86
2022/09/24 17:53:52;;;;;;;14.63;6.20;;;18.60;74.60;;;;;;6151937;23;20017;-84
2022/09/24 17:56:22;;;;;;;14.68;6.72;;;18.60;74.40;;;;;;6157817;23;20012;-73
2022/09/24 17:58:50;;;;;;;13.38;6.13;;;18.60;74.60;;;;;;6179982;23;20021;-82
2022/09/24 18:01:20;;;;;;;12.70;6.30;;;18.60;74.90;;;;;;6181198;23;20303;-79
2022/09/24 18:03:48;;;;;;;15.45;5.35;;;18.60;75.10;;;;;;6180605;23;20001;-67
2022/09/24 18:06:15;;;;;;;11.63;5.70;;;18.60;75.70;;;;;;6180495;23;20005;-68
2022/09/24 18:08:43;;;;;;;12.63;5.85;;;18.60;76.00;;;;;;6181528;23;20008;-66
2022/09/24 18:11:16;;;;;;;15.23;6.35;;;18.60;76.00;;;;;;6180295;23;20005;-70
2022/09/24 18:13:48;;;;;;;18.85;10.98;;;18.70;76.30;;;;;;6181706;23;20079;-69
2022/09/24 18:16:15;;;;;;;16.95;9.70;;;18.60;76.40;;;;;;6180471;23;20428;-71
2022/09/24 18:18:43;;;;;;;10.63;7.00;;;18.60;76.50;;;;;;6181544;23;20009;-67
2022/09/24 18:21:11;;;;;;;13.68;6.25;;;18.60;76.50;;;;;;6180709;23;20372;-66
2022/09/24 18:23:39;;;;;;;17.23;7.90;;;18.60;76.60;;;;;;6179511;23;20001;-73
2022/09/24 18:26:16;;;;;;;17.33;5.40;;;18.70;76.60;;;;;;6154896;23;20329;-67
2022/09/24 18:28:52;;;;;;;7.30;4.50;;;18.70;76.90;;;;;;6180094;23;20095;-70
2022/09/24 18:31:21;;;;;;;13.27;5.15;;;18.70;76.90;;;;;;6181456;23;19997;-66
2022/09/24 18:33:51;;;;;;;8.65;4.00;;;18.70;76.90;;;;;;6180730;23;19993;-66
2022/09/24 18:36:22;;;;;;;9.20;4.75;;;18.70;77.00;;;;;;6180864;23;20004;-71
2022/09/24 18:38:49;;;;;;;19.30;6.82;;;18.70;76.80;;;;;;6155832;23;20037;-68
2022/09/24 18:41:24;;;;;;;13.52;7.57;;;18.60;76.80;;;;;;6179461;23;19997;-68
2022/09/24 18:43:51;;;;;;;10.05;5.47;;;18.60;77.00;;;;;;6181747;23;20372;-66
2022/09/24 18:46:19;;;;;;;13.68;5.28;;;18.60;77.00;;;;;;6179486;23;20028;-72
2022/09/24 18:48:49;;;;;;;8.77;4.63;;;18.60;77.00;;;;;;6180996;23;20001;-67
2022/09/24 18:51:26;;;;;;;14.10;4.55;;;18.60;77.20;;;;;;6179898;23;19997;-69
2022/09/24 18:53:57;;;;;;;12.57;5.10;;;18.60;77.40;;;;;;6179866;23;20068;-66
2022/09/24 18:56:24;;;;;;;24.27;5.28;;;18.60;77.50;;;;;;6180535;23;20041;-74
2022/09/24 18:59:03;;;;;;;7.70;4.50;;;18.60;77.60;;;;;;6180412;23;20758;-73
2022/09/24 19:01:30;;;;;;;14.50;5.53;;;18.60;77.90;;;;;;6179975;23;20009;-68
2022/09/24 19:03:59;;;;;;;13.43;4.90;;;18.60;77.90;;;;;;6179818;23;19993;-72
2022/09/24 19:06:27;;;;;;;9.77;4.53;;;18.60;78.10;;;;;;6181041;23;20008;-68